createdAt,value
2022-08-20T00:01:36.549Z,11.38
2022-08-20T00:04:24.511Z,10.25
2022-08-20T00:07:12.684Z,9.58
2022-08-20T00:10:00.872Z,10.38
2022-08-20T00:12:49.721Z,10.32
2022-08-20T00:15:38.335Z,10.43
2022-08-20T00:18:25.992Z,10.28
2022-08-20T00:21:19.163Z,10.88
2022-08-20T00:24:05.808Z,9.63
2022-08-20T00:26:53.567Z,9.95
2022-08-20T00:29:40.849Z,10.40
2022-08-20T00:32:27.952Z,9.80
2022-08-20T00:35:18.089Z,9.53
2022-08-20T00:40:55.584Z,9.23
2022-08-20T00:43:55.011Z,9.45
2022-08-20T00:46:45.425Z,9.68
2022-08-20T00:49:34.103Z,9.53
2022-08-20T00:52:22.263Z,9.08
2022-08-20T00:55:11.167Z,9.50
2022-08-20T00:58:03.543Z,9.68
2022-08-20T01:00:51.391Z,9.50
2022-08-20T01:03:38.728Z,9.75
2022-08-20T01:06:27.200Z,9.83
2022-08-20T01:09:15.001Z,10.35
2022-08-20T01:12:03.503Z,9.65
2022-08-20T01:14:51.063Z,9.68
2022-08-20T01:17:41.872Z,9.73
2022-08-20T01:20:35.231Z,9.55
2022-08-20T01:23:30.724Z,8.73
2022-08-20T01:29:41.480Z,10.63
2022-08-20T01:32:29.243Z,10.32
2022-08-20T01:35:21.679Z,10.53
2022-08-20T01:38:09.831Z,10.23
2022-08-20T01:41:17.614Z,9.18
2022-08-20T01:44:06.441Z,10.20
2022-08-20T01:46:57.493Z,10.60
2022-08-20T01:49:49.920Z,10.20
2022-08-20T01:52:48.351Z,10.63
2022-08-20T01:55:35.913Z,10.63
2022-08-20T01:58:24.083Z,10.35
2022-08-20T02:01:20.684Z,10.30
2022-08-20T02:04:15.153Z,10.43
2022-08-20T02:07:02.136Z,9.58
2022-08-20T02:09:50.375Z,10.13
2022-08-20T02:12:40.071Z,10.20
2022-08-20T02:15:35.238Z,10.23
2022-08-20T02:18:17.065Z,9.68
2022-08-20T02:21:05.562Z,9.98
2022-08-20T02:23:53.015Z,10.10
2022-08-20T02:26:41.224Z,9.88
2022-08-20T02:29:28.935Z,10.28
2022-08-20T02:32:26.241Z,9.48
2022-08-20T02:35:10.640Z,9.90
2022-08-20T02:37:58.200Z,9.68
2022-08-20T02:40:46.802Z,9.53
2022-08-20T02:43:34.321Z,9.43
2022-08-20T02:46:21.661Z,9.60
2022-08-20T02:49:08.720Z,9.98
2022-08-20T02:51:56.055Z,10.35
2022-08-20T02:54:43.320Z,10.60
2022-08-20T02:57:31.008Z,10.30
2022-08-20T03:00:20.896Z,9.40
2022-08-20T03:03:11.015Z,9.38
2022-08-20T03:05:59.633Z,9.43
2022-08-20T03:08:47.049Z,9.90
2022-08-20T03:11:35.199Z,10.40
2022-08-20T03:14:23.312Z,10.23
2022-08-20T03:17:11.053Z,10.65
2022-08-20T03:19:58.449Z,9.33
2022-08-20T03:22:46.311Z,10.70
2022-08-20T03:25:34.015Z,11.08
2022-08-20T03:28:21.695Z,10.72
2022-08-20T03:31:09.168Z,10.38
2022-08-20T03:33:57.042Z,11.30
2022-08-20T03:36:44.402Z,10.65
2022-08-20T03:39:31.441Z,11.30
2022-08-20T03:42:18.943Z,11.18
2022-08-20T03:45:08.031Z,10.85
2022-08-20T03:47:57.195Z,10.70
2022-08-20T03:50:46.448Z,9.98
2022-08-20T03:53:33.544Z,11.45
2022-08-20T03:56:21.583Z,10.48
2022-08-20T03:59:09.792Z,10.43
2022-08-20T04:01:57.346Z,11.35
2022-08-20T04:04:45.064Z,10.10
2022-08-20T04:07:32.248Z,10.58
2022-08-20T04:10:19.976Z,11.10
2022-08-20T04:13:08.496Z,10.72
2022-08-20T04:15:56.386Z,10.90
2022-08-20T04:18:57.235Z,11.00
2022-08-20T04:21:35.303Z,10.10
2022-08-20T04:24:31.953Z,10.48
2022-08-20T04:27:14.464Z,10.50
2022-08-20T04:30:04.304Z,10.60
2022-08-20T04:32:52.096Z,10.43
2022-08-20T04:35:39.776Z,10.35
2022-08-20T04:38:27.361Z,10.00
2022-08-20T04:41:22.410Z,9.95
2022-08-20T04:44:05.129Z,9.88
2022-08-20T04:46:52.463Z,10.48
2022-08-20T04:49:40.007Z,10.45
2022-08-20T04:52:28.698Z,10.78
2022-08-20T04:55:17.361Z,10.15
2022-08-20T04:58:09.712Z,10.85
2022-08-20T05:01:01.171Z,12.23
2022-08-20T05:06:36.024Z,10.70
2022-08-20T05:09:23.848Z,10.90
2022-08-20T05:12:12.304Z,11.08
2022-08-20T05:15:00.351Z,10.68
2022-08-20T05:17:47.961Z,10.53
2022-08-20T05:20:39.609Z,10.55
2022-08-20T05:23:26.608Z,10.80
2022-08-20T05:26:16.174Z,9.85
2022-08-20T05:29:05.679Z,9.40
2022-08-20T05:31:52.849Z,9.60
2022-08-20T05:34:40.496Z,8.90
2022-08-20T05:37:27.912Z,9.83
2022-08-20T05:40:17.152Z,9.63
2022-08-20T05:43:05.146Z,9.30
2022-08-20T05:45:56.533Z,8.90
2022-08-20T05:48:41.665Z,9.78
2022-08-20T05:51:30.124Z,9.40
2022-08-20T05:54:17.481Z,9.50
2022-08-20T05:57:06.320Z,10.45
2022-08-20T05:59:53.760Z,10.40
2022-08-20T06:02:59.533Z,9.95
2022-08-20T06:05:47.000Z,10.08
2022-08-20T06:08:34.672Z,9.78
2022-08-20T06:11:23.074Z,8.88
2022-08-20T06:14:10.544Z,9.75
2022-08-20T06:17:09.600Z,10.10
2022-08-20T06:19:58.712Z,9.60
2022-08-20T06:22:46.209Z,8.98
2022-08-20T06:25:38.001Z,8.45
2022-08-20T06:28:25.153Z,8.53
2022-08-20T06:31:12.770Z,8.15
2022-08-20T06:34:00.176Z,8.38
2022-08-20T06:36:47.759Z,7.60
2022-08-20T06:39:35.473Z,7.65
2022-08-20T06:42:23.426Z,7.83
2022-08-20T06:45:11.968Z,7.42
2022-08-20T06:48:01.476Z,6.90
2022-08-20T06:50:49.096Z,6.53
2022-08-20T06:53:37.295Z,6.80
2022-08-20T06:56:24.632Z,6.65
2022-08-20T06:59:12.072Z,6.97
2022-08-20T07:01:59.079Z,6.87
2022-08-20T07:04:46.992Z,6.47
2022-08-20T07:07:34.681Z,7.08
2022-08-20T07:10:23.896Z,6.25
2022-08-20T07:13:13.424Z,7.60
2022-08-20T07:16:00.912Z,6.85
2022-08-20T07:18:48.119Z,6.37
2022-08-20T07:21:35.577Z,5.92
2022-08-20T07:24:23.168Z,6.22
2022-08-20T07:27:10.816Z,6.40
2022-08-20T07:30:16.081Z,5.67
2022-08-20T07:33:05.024Z,5.70
2022-08-20T07:35:54.281Z,6.05
2022-08-20T07:38:41.767Z,5.78
2022-08-20T07:41:29.633Z,4.87
2022-08-20T07:44:17.536Z,4.55
2022-08-20T07:47:05.600Z,4.33
2022-08-20T07:49:52.936Z,4.58
2022-08-20T07:52:40.360Z,4.58
2022-08-20T07:55:28.017Z,4.50
2022-08-20T07:58:18.513Z,4.30
2022-08-20T08:01:07.347Z,4.40
2022-08-20T08:03:55.161Z,4.33
2022-08-20T08:06:43.792Z,4.15
2022-08-20T08:09:31.248Z,4.10
2022-08-20T08:12:18.599Z,4.35
2022-08-20T08:15:08.657Z,3.85
2022-08-20T08:20:47.047Z,4.40
2022-08-20T08:23:35.072Z,4.20
2022-08-20T08:26:22.624Z,4.28
2022-08-20T08:29:10.276Z,4.12
2022-08-20T08:31:57.849Z,3.92
2022-08-20T08:34:47.848Z,3.80
2022-08-20T08:37:37.665Z,4.37
2022-08-20T08:40:25.551Z,3.85
2022-08-20T08:43:14.551Z,4.15
2022-08-20T08:46:09.427Z,4.65
2022-08-20T08:48:59.002Z,3.65
2022-08-20T08:51:49.008Z,4.17
2022-08-20T08:57:24.215Z,3.70
2022-08-20T09:00:17.467Z,4.03
2022-08-20T09:03:13.832Z,3.85
2022-08-20T09:06:02.448Z,4.05
2022-08-20T09:08:52.681Z,4.42
2022-08-20T09:11:53.308Z,4.15
2022-08-20T09:14:41.317Z,4.40
2022-08-20T09:17:28.657Z,4.10
2022-08-20T09:20:15.929Z,3.98
2022-08-20T09:23:05.117Z,4.42
2022-08-20T09:25:52.769Z,4.00
2022-08-20T09:28:39.745Z,3.92
2022-08-20T09:31:27.832Z,4.33
2022-08-20T09:34:15.898Z,4.03
2022-08-20T09:37:03.386Z,3.80
2022-08-20T09:39:51.404Z,3.77
2022-08-20T09:42:41.607Z,4.50
2022-08-20T09:45:29.696Z,4.25
2022-08-20T09:48:17.160Z,4.00
2022-08-20T09:51:04.800Z,4.10
2022-08-20T09:53:53.049Z,4.12
2022-08-20T09:56:40.498Z,3.72
2022-08-20T09:59:29.000Z,4.00
2022-08-20T10:02:16.695Z,3.90
2022-08-20T10:05:03.993Z,3.75
2022-08-20T10:07:51.937Z,4.10
2022-08-20T10:10:39.448Z,4.60
2022-08-20T10:13:26.569Z,3.92
2022-08-20T10:16:14.201Z,4.40
2022-08-20T10:19:02.081Z,4.08
2022-08-20T10:21:54.427Z,4.30
2022-08-20T10:24:41.616Z,4.28
2022-08-20T10:27:28.962Z,4.08
2022-08-20T10:30:16.587Z,4.25
2022-08-20T10:33:04.280Z,4.33
2022-08-20T10:35:51.488Z,4.42
2022-08-20T10:38:40.571Z,3.87
2022-08-20T10:41:28.536Z,3.90
2022-08-20T10:44:17.752Z,4.08
2022-08-20T10:47:20.512Z,4.03
2022-08-20T10:50:10.920Z,3.62
2022-08-20T10:52:58.650Z,3.80
2022-08-20T10:55:46.344Z,3.72
2022-08-20T10:58:37.744Z,3.52
2022-08-20T11:01:32.769Z,3.17
2022-08-20T11:04:12.125Z,3.67
2022-08-20T11:06:59.625Z,3.62
2022-08-20T11:09:48.352Z,3.60
2022-08-20T11:12:35.809Z,3.17
2022-08-20T11:15:22.991Z,3.20
2022-08-20T11:18:13.197Z,3.72
2022-08-20T11:21:01.598Z,3.60
2022-08-20T11:23:48.569Z,3.52
2022-08-20T11:26:36.058Z,2.95
2022-08-20T11:29:24.922Z,2.95
2022-08-20T11:32:13.251Z,3.30
2022-08-20T11:35:00.584Z,3.62
2022-08-20T11:37:47.946Z,3.67
2022-08-20T11:40:35.184Z,3.65
2022-08-20T11:43:22.891Z,4.12
2022-08-20T11:46:10.419Z,3.90
2022-08-20T11:48:57.865Z,3.50
2022-08-20T11:51:49.637Z,3.67
2022-08-20T11:54:35.432Z,4.28
2022-08-20T11:57:26.130Z,3.80
2022-08-20T12:00:16.831Z,3.22
2022-08-20T12:03:06.174Z,3.80
2022-08-20T12:05:56.928Z,3.95
2022-08-20T12:08:44.320Z,3.83
2022-08-20T12:11:32.160Z,4.22
2022-08-20T12:14:19.472Z,3.60
2022-08-20T12:17:20.066Z,4.08
2022-08-20T12:20:10.280Z,3.80
2022-08-20T12:22:59.144Z,3.90
2022-08-20T12:25:46.508Z,4.17
2022-08-20T12:28:34.281Z,4.00
2022-08-20T12:31:21.712Z,4.10
2022-08-20T12:34:08.625Z,4.03
2022-08-20T12:37:05.560Z,4.42
2022-08-20T12:39:56.027Z,3.70
2022-08-20T12:42:43.769Z,4.15
2022-08-20T12:45:31.848Z,4.22
2022-08-20T12:48:20.976Z,4.35
2022-08-20T12:51:08.240Z,3.85
2022-08-20T12:53:55.224Z,4.03
2022-08-20T12:56:42.848Z,4.00
2022-08-20T12:59:30.201Z,3.70
2022-08-20T13:02:19.408Z,3.90
2022-08-20T13:05:09.554Z,4.12
2022-08-20T13:07:57.320Z,3.98
2022-08-20T13:10:46.447Z,3.67
2022-08-20T13:13:33.922Z,3.80
2022-08-20T13:16:21.200Z,4.20
2022-08-20T13:19:08.706Z,3.77
2022-08-20T13:21:56.372Z,3.67
2022-08-20T13:24:44.385Z,3.40
2022-08-20T13:27:31.794Z,3.92
2022-08-20T13:30:20.578Z,3.87
2022-08-20T13:33:08.105Z,3.95
2022-08-20T13:35:56.857Z,3.67
2022-08-20T13:38:44.056Z,3.50
2022-08-20T13:41:31.689Z,3.87
2022-08-20T13:44:19.305Z,4.12
2022-08-20T13:47:18.469Z,3.37
2022-08-20T13:50:10.067Z,3.92
2022-08-20T13:52:58.804Z,4.03
2022-08-20T13:55:48.060Z,3.67
2022-08-20T13:58:35.810Z,3.83
2022-08-20T14:01:23.392Z,3.67
2022-08-20T14:04:11.057Z,3.60
2022-08-20T14:06:58.417Z,3.50
2022-08-20T14:09:49.129Z,3.52
2022-08-20T14:12:36.384Z,3.75
2022-08-20T14:15:24.032Z,3.55
2022-08-20T14:18:11.401Z,4.10
2022-08-20T14:20:58.873Z,3.60
2022-08-20T14:23:46.123Z,3.90
2022-08-20T14:26:33.605Z,3.98
2022-08-20T14:29:22.464Z,3.77
2022-08-20T14:32:10.914Z,3.33
2022-08-20T14:34:59.406Z,3.90
2022-08-20T14:37:56.793Z,4.10
2022-08-20T14:40:44.274Z,3.45
2022-08-20T14:43:31.699Z,3.83
2022-08-20T14:46:19.217Z,3.52
2022-08-20T14:49:06.792Z,3.85
2022-08-20T14:51:53.985Z,3.92
2022-08-20T14:54:41.612Z,4.20
2022-08-20T14:57:29.153Z,3.65
2022-08-20T15:00:19.764Z,3.98
2022-08-20T15:03:07.545Z,4.05
2022-08-20T15:05:55.113Z,3.90
2022-08-20T15:08:42.769Z,4.10
2022-08-20T15:11:34.090Z,4.25
2022-08-20T15:14:18.929Z,3.90
2022-08-20T15:17:07.300Z,4.30
2022-08-20T15:19:54.848Z,4.20
2022-08-20T15:22:43.208Z,4.50
2022-08-20T15:25:36.894Z,4.47
2022-08-20T15:28:23.312Z,4.40
2022-08-20T15:31:11.825Z,4.30
2022-08-20T15:33:59.548Z,4.60
2022-08-20T15:36:47.568Z,4.05
2022-08-20T15:39:36.425Z,4.58
2022-08-20T15:42:24.602Z,4.25
2022-08-20T15:45:12.680Z,4.30
2022-08-20T15:48:15.800Z,4.35
2022-08-20T15:51:12.392Z,4.22
2022-08-20T15:54:05.941Z,4.58
2022-08-20T15:57:05.921Z,4.72
2022-08-20T16:00:09.833Z,4.47
2022-08-20T16:03:22.796Z,4.65
2022-08-20T16:06:17.122Z,4.50
2022-08-20T16:09:41.424Z,4.92
2022-08-20T16:12:34.289Z,4.97
2022-08-20T16:15:32.968Z,4.08
2022-08-20T16:18:23.519Z,4.35
2022-08-20T16:21:13.952Z,4.95
2022-08-20T16:24:02.201Z,4.75
2022-08-20T16:27:07.184Z,4.90
2022-08-20T16:30:09.911Z,4.92
2022-08-20T16:33:02.984Z,4.92
2022-08-20T16:39:28.595Z,4.72
2022-08-20T16:42:17.873Z,4.75
2022-08-20T16:45:08.330Z,4.87
2022-08-20T16:50:47.527Z,5.30
2022-08-20T16:53:35.545Z,4.80
2022-08-20T16:56:37.808Z,5.10
2022-08-20T16:59:27.086Z,5.37
2022-08-20T17:02:16.057Z,5.30
2022-08-20T17:05:04.879Z,5.90
2022-08-20T17:07:57.906Z,5.72
2022-08-20T17:11:04.075Z,7.05
2022-08-20T17:13:51.559Z,6.35
2022-08-20T17:16:42.480Z,6.97
2022-08-20T17:19:32.024Z,8.25
2022-08-20T17:22:21.287Z,6.78
2022-08-20T17:25:18.920Z,8.25
2022-08-20T17:28:17.247Z,7.95
2022-08-20T17:31:04.595Z,8.40
2022-08-20T17:33:51.992Z,8.20
2022-08-20T17:36:42.399Z,8.35
2022-08-20T17:39:32.072Z,9.08
2022-08-20T17:42:22.481Z,9.05
2022-08-20T17:45:14.713Z,7.62
2022-08-20T17:48:02.543Z,7.00
2022-08-20T17:50:50.327Z,7.05
2022-08-20T17:53:39.520Z,7.35
2022-08-20T17:56:32.270Z,6.75
2022-08-20T17:59:59.720Z,6.55
2022-08-20T18:02:18.493Z,6.87
2022-08-20T18:05:12.277Z,6.60
2022-08-20T18:08:14.095Z,6.75
2022-08-20T18:11:24.127Z,6.58
2022-08-20T18:14:19.672Z,6.72
2022-08-20T18:17:15.702Z,6.10
2022-08-20T18:20:08.865Z,6.47
2022-08-20T18:23:03.766Z,6.20
2022-08-20T18:28:55.545Z,5.60
2022-08-20T18:31:51.600Z,6.47
2022-08-20T18:34:42.545Z,5.78
2022-08-20T18:37:31.354Z,5.40
2022-08-20T18:43:17.158Z,5.97
2022-08-20T18:46:16.431Z,5.95
2022-08-20T18:49:06.777Z,5.80
2022-08-20T18:51:54.489Z,5.70
2022-08-20T18:54:44.248Z,5.97
2022-08-20T18:57:41.149Z,5.40
2022-08-20T19:00:28.690Z,5.85
2022-08-20T19:03:31.541Z,5.30
2022-08-20T19:06:33.504Z,5.95
2022-08-20T19:09:48.480Z,5.72
2022-08-20T19:13:16.078Z,5.17
2022-08-20T19:16:11.387Z,5.50
2022-08-20T19:18:58.999Z,5.37
2022-08-20T19:21:48.453Z,5.60
2022-08-20T19:24:40.676Z,5.55
2022-08-20T19:27:27.009Z,5.35
2022-08-20T19:30:14.697Z,5.30
2022-08-20T19:33:04.612Z,5.35
2022-08-20T19:35:52.114Z,5.50
2022-08-20T19:38:52.783Z,6.15
2022-08-20T19:41:46.394Z,5.90
2022-08-20T19:44:46.796Z,5.87
2022-08-20T19:47:38.144Z,6.12
2022-08-20T19:50:43.776Z,5.90
2022-08-20T19:53:33.760Z,6.20
2022-08-20T19:56:23.983Z,5.90
2022-08-20T20:02:03.300Z,5.33
2022-08-20T20:04:54.929Z,5.78
2022-08-20T20:07:43.543Z,5.83
2022-08-20T20:13:24.048Z,5.17
2022-08-20T20:16:12.047Z,6.00
2022-08-20T20:19:24.855Z,5.90
2022-08-20T20:21:53.088Z,5.20
2022-08-20T20:24:46.692Z,5.67
2022-08-20T20:27:35.026Z,5.50
2022-08-20T20:30:35.770Z,5.75
2022-08-20T20:33:31.557Z,5.65
2022-08-20T20:36:21.682Z,5.78
2022-08-20T20:39:29.968Z,5.47
2022-08-20T20:42:21.832Z,5.47
2022-08-20T20:45:20.108Z,5.87
2022-08-20T20:48:22.032Z,5.65
2022-08-20T20:54:12.385Z,6.30
2022-08-20T20:57:23.924Z,5.60
2022-08-20T21:00:13.552Z,5.78
2022-08-20T21:03:04.249Z,5.15
2022-08-20T21:05:49.848Z,5.05
2022-08-20T21:08:36.921Z,5.37
2022-08-20T21:11:25.322Z,5.45
2022-08-20T21:14:13.162Z,4.65
2022-08-20T21:17:03.425Z,5.00
2022-08-20T21:19:52.264Z,4.55
2022-08-20T21:22:40.273Z,5.08
2022-08-20T21:25:29.642Z,4.75
2022-08-20T21:28:16.921Z,5.12
2022-08-20T21:31:04.712Z,5.10
2022-08-20T21:33:52.671Z,4.42
2022-08-20T21:36:40.929Z,4.70
2022-08-20T21:39:28.336Z,5.60
2022-08-20T21:42:29.392Z,5.10
2022-08-20T21:45:08.872Z,5.42
2022-08-20T21:47:56.226Z,4.80
2022-08-20T21:50:44.167Z,5.15
2022-08-20T21:53:32.135Z,5.20
2022-08-20T21:56:19.826Z,4.85
2022-08-20T21:59:09.801Z,5.10
2022-08-20T22:01:57.321Z,5.17
2022-08-20T22:04:45.005Z,4.87
2022-08-20T22:07:32.689Z,4.65
2022-08-20T22:10:19.991Z,4.90
2022-08-20T22:13:07.608Z,5.00
2022-08-20T22:15:55.455Z,5.97
2022-08-20T22:18:43.403Z,5.22
2022-08-20T22:21:33.191Z,4.72
2022-08-20T22:24:20.751Z,5.53
2022-08-20T22:27:08.276Z,4.95
2022-08-20T22:29:56.186Z,4.80
2022-08-20T22:33:01.496Z,4.70
2022-08-20T22:35:33.153Z,4.65
2022-08-20T22:38:20.830Z,5.00
2022-08-20T22:41:09.923Z,5.30
2022-08-20T22:43:57.566Z,4.92
2022-08-20T22:46:48.158Z,4.70
2022-08-20T22:49:35.454Z,5.25
2022-08-20T22:52:23.807Z,4.97
2022-08-20T22:55:13.198Z,5.10
2022-08-20T22:58:00.986Z,4.87
2022-08-20T23:00:49.566Z,4.97
2022-08-20T23:03:40.114Z,5.17
2022-08-20T23:06:27.303Z,4.50
2022-08-20T23:09:14.551Z,5.00
2022-08-20T23:12:03.566Z,5.00
2022-08-20T23:14:52.791Z,4.90
2022-08-20T23:17:40.584Z,4.85
2022-08-20T23:20:28.198Z,5.20
2022-08-20T23:23:16.599Z,5.30
2022-08-20T23:26:03.954Z,4.83
2022-08-20T23:28:51.388Z,5.17
2022-08-20T23:31:39.407Z,5.28
2022-08-20T23:34:27.703Z,5.10
2022-08-20T23:37:15.463Z,5.03
2022-08-20T23:40:03.226Z,5.47
2022-08-20T23:42:51.155Z,5.65
2022-08-20T23:45:39.928Z,5.40
2022-08-20T23:48:27.624Z,5.03
2022-08-20T23:51:15.320Z,5.37
2022-08-20T23:54:03.048Z,4.97
2022-08-20T23:56:50.502Z,5.22
2022-08-20T23:59:38.143Z,5.15
